createdAt,value
2022-08-19T00:24:38.511Z,0
2022-08-19T00:54:41.780Z,0
2022-08-19T01:24:43.568Z,0
2022-08-19T01:54:44.462Z,0
2022-08-19T02:24:48.630Z,0
2022-08-19T02:54:58.504Z,0
2022-08-19T03:25:01.687Z,1
2022-08-19T03:55:04.585Z,0
2022-08-19T04:25:11.233Z,4
2022-08-19T04:55:12.295Z,6
2022-08-19T05:25:13.341Z,13
2022-08-19T05:55:14.340Z,18
2022-08-19T06:25:16.502Z,32
2022-08-19T06:55:26.426Z,58
2022-08-19T07:25:28.400Z,44
2022-08-19T07:55:41.000Z,45.0
2022-08-19T08:25:45.508Z,98
2022-08-19T08:55:57.429Z,87
2022-08-19T09:26:06.542Z,50
2022-08-19T09:56:07.675Z,53
2022-08-19T10:26:13.493Z,78
2022-08-19T10:56:15.396Z,70
2022-08-19T11:26:18.427Z,49
2022-08-19T11:56:20.584Z,31
2022-08-19T12:26:25.564Z,19
2022-08-19T12:56:30.546Z,162
2022-08-19T13:26:30.000Z,214.0
2022-08-19T13:56:31.000Z,194.0
2022-08-19T14:26:33.000Z,89.0
2022-08-19T14:56:35.000Z,42.0
2022-08-19T15:26:39.662Z,106
2022-08-19T15:56:40.000Z,45.0
2022-08-19T16:26:46.000Z,45.0
2022-08-19T16:56:56.000Z,7.0
2022-08-19T17:27:02.000Z,11.0
2022-08-19T17:57:07.352Z,28
2022-08-19T18:27:10.000Z,4.0
2022-08-19T18:57:17.000Z,0.0
2022-08-19T19:27:22.000Z,0.0
2022-08-19T19:57:26.491Z,0
2022-08-19T20:27:29.000Z,0.0
2022-08-19T20:57:37.000Z,0.0
2022-08-19T21:27:37.000Z,0.0
2022-08-19T21:57:40.000Z,0.0
2022-08-19T22:27:51.000Z,0.0
2022-08-19T22:58:01.797Z,1
2022-08-19T23:28:05.000Z,1.0
2022-08-19T23:58:08.787Z,0
